Time;durP1;ratioP1;P1;durP2;ratioP2;P2;SDS_P1;SDS_P2;PMS_P1;PMS_P2;Temp;Humidity;BMP_temperature;BMP_pressure;BME280_temperature;BME280_humidity;BME280_pressure;Samples;Min_cycle;Max_cycle;Signal;HPM_P1;HPM_P2
2022/09/05 00:00:18;;;;;;;3.17;3.07;;;17.40;99.90;;;;;;5029961;28;20607;-49
2022/09/05 00:02:55;;;;;;;3.13;3.03;;;17.30;99.90;;;;;;5032622;28;20672;-50
2022/09/05 00:05:40;;;;;;;3.47;2.93;;;17.30;99.90;;;;;;5031661;28;20240;-49
2022/09/05 00:08:17;;;;;;;3.70;3.47;;;17.20;99.90;;;;;;5029986;28;20202;-50
2022/09/05 00:10:50;;;;;;;3.40;3.30;;;17.10;99.90;;;;;;5032425;28;20201;-49
2022/09/05 00:13:24;;;;;;;3.53;3.23;;;17.00;99.90;;;;;;5033401;28;20206;-50
2022/09/05 00:16:07;;;;;;;3.70;3.40;;;17.00;99.90;;;;;;5028722;28;20231;-50
2022/09/05 00:18:53;;;;;;;3.53;3.33;;;17.00;99.90;;;;;;5033367;28;20587;-48
2022/09/05 00:21:33;;;;;;;5.40;2.83;;;17.00;99.90;;;;;;5025650;28;20668;-50
2022/09/05 00:24:22;;;;;;;2.90;2.80;;;17.00;99.90;;;;;;5030847;28;20190;-50
2022/09/05 00:26:57;;;;;;;4.20;3.90;;;17.00;99.90;;;;;;5023854;28;20708;-50
2022/09/05 00:29:39;;;;;;;3.13;3.03;;;17.00;99.90;;;;;;5030983;28;20217;-50
2022/09/05 00:32:16;;;;;;;3.10;2.57;;;16.90;99.90;;;;;;5022826;28;20237;-49
2022/09/05 00:35:17;;;;;;;3.50;3.30;;;16.80;99.90;;;;;;5032185;28;20217;-50
2022/09/05 00:37:47;;;;;;;3.33;3.17;;;16.80;99.90;;;;;;5031150;28;20229;-50
2022/09/05 00:40:21;;;;;;;3.53;3.33;;;16.80;99.90;;;;;;5022828;28;20273;-49
2022/09/05 00:42:50;;;;;;;3.13;2.93;;;16.80;99.90;;;;;;5030683;28;20206;-49
2022/09/05 00:45:26;;;;;;;3.63;3.47;;;16.70;99.90;;;;;;5031238;28;20363;-49
2022/09/05 00:48:00;;;;;;;3.43;3.33;;;16.80;99.90;;;;;;5031874;28;20877;-49
2022/09/05 00:50:37;;;;;;;3.43;3.23;;;16.70;99.90;;;;;;5025502;28;20627;-50
2022/09/05 00:53:10;;;;;;;3.13;3.03;;;16.80;99.90;;;;;;5023470;28;20202;-50
2022/09/05 00:55:47;;;;;;;3.80;3.60;;;16.70;99.90;;;;;;5025869;28;20226;-49
2022/09/05 00:58:39;;;;;;;2.93;2.73;;;16.80;99.90;;;;;;5031080;28;20202;-49
2022/09/05 01:01:21;;;;;;;3.07;2.97;;;16.80;99.90;;;;;;5030284;28;20202;-48
2022/09/05 01:04:02;;;;;;;3.73;3.43;;;16.80;99.90;;;;;;5028769;28;20195;-49
2022/09/05 01:06:42;;;;;;;3.53;3.40;;;16.80;99.90;;;;;;5026447;28;20222;-50
2022/09/05 01:09:33;;;;;;;3.87;3.47;;;16.80;99.90;;;;;;5025785;28;20628;-50
2022/09/05 01:12:16;;;;;;;3.47;3.27;;;16.80;99.90;;;;;;5035665;28;20203;-50
2022/09/05 01:15:08;;;;;;;3.27;3.07;;;16.70;99.90;;;;;;5031408;28;20218;-49
2022/09/05 01:17:51;;;;;;;4.17;3.77;;;16.70;99.90;;;;;;5023103;28;20305;-50
2022/09/05 01:20:34;;;;;;;4.27;3.23;;;16.70;99.90;;;;;;5028074;28;20210;-50
2022/09/05 01:23:19;;;;;;;3.07;2.90;;;16.80;99.90;;;;;;5023419;28;20198;-49
2022/09/05 01:26:01;;;;;;;3.33;3.23;;;16.70;99.90;;;;;;5030479;28;20206;-50
2022/09/05 01:28:34;;;;;;;3.80;3.60;;;16.70;99.90;;;;;;5031726;28;20292;-51
2022/09/05 01:31:12;;;;;;;3.53;3.43;;;16.80;99.90;;;;;;5029977;28;20210;-49
2022/09/05 01:33:47;;;;;;;3.63;3.53;;;16.80;99.90;;;;;;5027806;28;20207;-50
2022/09/05 01:36:58;;;;;;;3.63;3.47;;;16.80;99.90;;;;;;5026254;28;20708;-49
2022/09/05 01:39:42;;;;;;;3.83;3.63;;;16.80;99.90;;;;;;5023190;28;20209;-49
2022/09/05 01:42:30;;;;;;;3.87;3.77;;;16.70;99.90;;;;;;5024758;28;20207;-50
2022/09/05 01:45:03;;;;;;;3.87;3.57;;;16.70;99.90;;;;;;5027469;28;20218;-50
2022/09/05 01:47:42;;;;;;;3.67;3.37;;;16.70;99.90;;;;;;5022315;28;20260;-50
2022/09/05 01:50:19;;;;;;;3.30;3.20;;;16.70;99.90;;;;;;5025818;28;20253;-49
2022/09/05 01:53:05;;;;;;;3.20;2.83;;;16.60;99.90;;;;;;5031086;28;20722;-50
2022/09/05 01:55:54;;;;;;;3.20;2.90;;;16.70;99.90;;;;;;5026554;28;20708;-49
2022/09/05 01:58:33;;;;;;;3.50;3.20;;;16.60;99.90;;;;;;5022498;28;20276;-49
2022/09/05 02:01:11;;;;;;;3.50;3.30;;;16.60;99.90;;;;;;5030233;28;20210;-50
2022/09/05 02:03:46;;;;;;;3.53;3.33;;;16.50;99.90;;;;;;5022496;28;20694;-50
2022/09/05 02:06:30;;;;;;;3.43;3.23;;;16.40;99.90;;;;;;5025112;28;20591;-49
2022/09/05 02:09:25;;;;;;;3.47;3.27;;;16.40;99.90;;;;;;5030406;28;20194;-49
2022/09/05 02:11:57;;;;;;;3.40;3.30;;;16.30;99.90;;;;;;5031305;28;20207;-50
2022/09/05 02:14:31;;;;;;;3.83;2.97;;;16.30;99.90;;;;;;5033119;28;20256;-49
2022/09/05 02:17:15;;;;;;;2.57;2.27;;;16.40;99.90;;;;;;5034375;28;20270;-49
2022/09/05 02:19:47;;;;;;;3.13;2.93;;;16.50;99.90;;;;;;5041162;28;20234;-48
2022/09/05 02:22:21;;;;;;;3.60;3.40;;;16.50;99.90;;;;;;5027872;28;20216;-49
2022/09/05 02:24:54;;;;;;;2.13;2.03;;;16.50;99.90;;;;;;5035320;28;20282;-49
2022/09/05 02:27:27;;;;;;;2.60;2.50;;;16.60;99.90;;;;;;5034874;28;20276;-49
2022/09/05 02:30:07;;;;;;;2.97;2.77;;;16.60;99.90;;;;;;5034391;28;20210;-49
2022/09/05 02:32:48;;;;;;;2.50;2.40;;;16.70;99.90;;;;;;5034051;28;20206;-50
2022/09/05 02:35:22;;;;;;;4.40;2.97;;;16.60;99.90;;;;;;5035780;28;20655;-49
2022/09/05 02:37:54;;;;;;;3.30;3.00;;;16.70;99.90;;;;;;5033006;28;20222;-49
2022/09/05 02:40:28;;;;;;;2.57;2.47;;;16.60;99.90;;;;;;5025328;28;20209;-49
2022/09/05 02:42:59;;;;;;;4.20;2.80;;;16.70;99.90;;;;;;5029022;28;20198;-50
2022/09/05 02:45:38;;;;;;;2.40;2.20;;;16.60;99.90;;;;;;5029558;28;20205;-49
2022/09/05 02:48:18;;;;;;;2.33;2.20;;;16.70;99.90;;;;;;5036186;28;20217;-49
2022/09/05 02:50:52;;;;;;;2.43;2.33;;;16.70;99.90;;;;;;5032005;28;20725;-49
2022/09/05 02:53:22;;;;;;;2.77;2.57;;;16.60;99.90;;;;;;5033986;28;20260;-49
2022/09/05 02:56:17;;;;;;;3.07;2.97;;;16.60;99.90;;;;;;5035264;28;20291;-49
2022/09/05 02:58:55;;;;;;;3.37;3.17;;;16.60;99.90;;;;;;5032871;28;20199;-49
2022/09/05 03:01:36;;;;;;;3.13;3.03;;;16.60;99.90;;;;;;5034772;28;20202;-49
2022/09/05 03:04:23;;;;;;;2.63;2.53;;;16.60;99.90;;;;;;5026023;28;20194;-49
2022/09/05 03:07:05;;;;;;;3.17;2.97;;;16.60;99.90;;;;;;5034122;28;20280;-50
2022/09/05 03:09:44;;;;;;;3.50;3.20;;;16.60;99.90;;;;;;5022314;28;20206;-49
2022/09/05 03:12:51;;;;;;;3.00;2.90;;;16.60;99.90;;;;;;5028084;28;20660;-49
2022/09/05 03:15:59;;;;;;;2.90;2.80;;;16.50;99.90;;;;;;5019612;28;20233;-49
2022/09/05 03:18:51;;;;;;;2.93;2.43;;;16.40;99.90;;;;;;5040272;28;20661;-49
2022/09/05 03:21:57;;;;;;;3.63;3.40;;;16.30;99.90;;;;;;5033698;28;20203;-49
2022/09/05 03:24:56;;;;;;;3.13;2.57;;;16.30;99.90;;;;;;5011848;28;20739;-49
2022/09/05 03:27:48;;;;;;;2.93;2.83;;;16.20;99.90;;;;;;5033466;28;20223;-49
2022/09/05 03:30:17;;;;;;;2.90;2.70;;;16.20;99.90;;;;;;5019338;28;20309;-49
2022/09/05 03:33:33;;;;;;;2.53;2.50;;;16.20;99.90;;;;;;5032746;28;20194;-49
2022/09/05 03:36:33;;;;;;;2.70;2.60;;;16.20;99.90;;;;;;5029763;28;20223;-50
2022/09/05 03:39:42;;;;;;;2.90;2.80;;;16.20;99.90;;;;;;5028720;28;20202;-49
2022/09/05 03:42:29;;;;;;;2.93;2.73;;;16.20;99.90;;;;;;5030444;28;20202;-49
2022/09/05 03:45:14;;;;;;;2.60;2.50;;;16.10;99.90;;;;;;5033092;28;20209;-49
2022/09/05 03:48:17;;;;;;;1.93;1.90;;;16.20;99.90;;;;;;5033766;28;20762;-49
2022/09/05 03:50:58;;;;;;;2.40;2.20;;;16.10;99.90;;;;;;5014244;28;20197;-49
2022/09/05 03:53:53;;;;;;;2.70;2.60;;;16.20;99.90;;;;;;5031124;28;20210;-48
2022/09/05 03:56:38;;;;;;;1.87;1.87;;;16.20;99.90;;;;;;5028915;28;20226;-49
2022/09/05 03:59:39;;;;;;;2.70;2.47;;;16.20;99.90;;;;;;5028677;28;20203;-48
2022/09/05 04:02:09;;;;;;;3.10;2.80;;;16.20;99.90;;;;;;5033428;28;20627;-49
2022/09/05 04:04:44;;;;;;;2.13;2.03;;;16.20;99.90;;;;;;5029877;28;20253;-48
2022/09/05 04:07:20;;;;;;;2.23;2.13;;;16.20;99.90;;;;;;5029252;28;20221;-49
2022/09/05 04:09:52;;;;;;;2.50;2.40;;;16.20;99.90;;;;;;5031588;28;20202;-48
2022/09/05 04:12:24;;;;;;;2.60;2.50;;;16.20;99.90;;;;;;5033288;28;20198;-49
2022/09/05 04:14:55;;;;;;;3.80;3.60;;;16.20;99.90;;;;;;5026521;28;20260;-48
2022/09/05 04:17:31;;;;;;;3.40;2.47;;;16.20;99.90;;;;;;5031279;28;20226;-49
2022/09/05 04:20:07;;;;;;;2.37;2.37;;;16.20;99.90;;;;;;5028640;28;20636;-49
2022/09/05 04:22:56;;;;;;;2.73;2.53;;;16.20;99.90;;;;;;5030413;28;20202;-49
2022/09/05 04:25:34;;;;;;;3.30;3.20;;;16.20;99.90;;;;;;5030672;28;20206;-49
2022/09/05 04:28:14;;;;;;;3.53;3.23;;;16.10;99.90;;;;;;5033184;28;20252;-49
2022/09/05 04:30:46;;;;;;;3.97;3.60;;;16.10;99.90;;;;;;5031040;28;20202;-49
2022/09/05 04:33:21;;;;;;;3.13;3.00;;;16.20;99.90;;;;;;5030958;28;20199;-49
2022/09/05 04:35:57;;;;;;;2.53;2.43;;;16.10;99.90;;;;;;5029545;28;20283;-49
2022/09/05 04:38:38;;;;;;;3.10;3.00;;;16.20;99.90;;;;;;5030276;28;20213;-49
2022/09/05 04:41:11;;;;;;;2.70;2.60;;;16.20;99.90;;;;;;5030750;28;20202;-49
2022/09/05 04:43:44;;;;;;;2.80;2.70;;;16.10;99.90;;;;;;5030672;28;20198;-49
2022/09/05 04:46:21;;;;;;;3.47;3.27;;;16.10;99.90;;;;;;5033989;28;20774;-49
2022/09/05 04:48:59;;;;;;;2.67;2.57;;;16.10;99.90;;;;;;5029346;28;20246;-50
2022/09/05 04:52:02;;;;;;;4.47;3.60;;;16.10;99.90;;;;;;5030051;28;20627;-49
2022/09/05 04:54:34;;;;;;;3.27;3.17;;;16.10;99.90;;;;;;5008131;28;20202;-49
2022/09/05 04:57:13;;;;;;;2.93;2.77;;;16.10;99.90;;;;;;5030273;28;20774;-49
2022/09/05 04:59:48;;;;;;;2.50;2.50;;;16.10;99.90;;;;;;5031399;28;20252;-48
2022/09/05 05:02:21;;;;;;;2.80;2.60;;;16.10;99.90;;;;;;5029682;28;20675;-49
2022/09/05 05:04:49;;;;;;;3.40;3.03;;;16.10;99.90;;;;;;5030765;28;20213;-49
2022/09/05 05:07:21;;;;;;;3.10;2.90;;;16.20;99.90;;;;;;5030684;28;20226;-49
2022/09/05 05:09:51;;;;;;;3.47;3.17;;;16.30;99.90;;;;;;5029279;28;20621;-49
2022/09/05 05:12:26;;;;;;;2.47;2.37;;;16.30;99.90;;;;;;5030003;28;20256;-49
2022/09/05 05:14:56;;;;;;;3.10;2.93;;;16.40;99.90;;;;;;5030283;28;20288;-49
2022/09/05 05:17:32;;;;;;;3.27;3.17;;;16.40;99.90;;;;;;5032638;28;20224;-49
2022/09/05 05:20:09;;;;;;;3.10;3.00;;;16.40;99.90;;;;;;5031793;28;20664;-48
2022/09/05 05:22:38;;;;;;;3.43;3.23;;;16.40;99.90;;;;;;5031382;28;20226;-49
2022/09/05 05:25:12;;;;;;;3.80;3.57;;;16.50;99.90;;;;;;5031055;28;20194;-50
2022/09/05 05:27:44;;;;;;;3.63;3.40;;;16.60;99.90;;;;;;5027260;28;20305;-49
2022/09/05 05:30:23;;;;;;;4.10;3.90;;;16.70;99.90;;;;;;5030401;28;20210;-49
2022/09/05 05:32:53;;;;;;;3.43;3.33;;;16.80;99.90;;;;;;5030506;28;20198;-49
2022/09/05 05:35:25;;;;;;;3.40;3.20;;;16.80;99.90;;;;;;5031181;28;20222;-48
2022/09/05 05:37:58;;;;;;;3.13;2.90;;;16.90;99.90;;;;;;5032788;28;20279;-49
2022/09/05 05:40:28;;;;;;;3.97;3.67;;;17.00;99.90;;;;;;5030924;28;20298;-50
2022/09/05 05:43:17;;;;;;;3.63;3.47;;;17.10;99.90;;;;;;5025933;28;20464;-49
2022/09/05 05:45:44;;;;;;;3.60;3.30;;;17.10;99.90;;;;;;5027623;28;20198;-49
2022/09/05 05:48:32;;;;;;;3.87;3.30;;;17.20;99.90;;;;;;5034281;28;20572;-50
2022/09/05 05:51:24;;;;;;;3.43;3.23;;;17.30;99.90;;;;;;5034628;28;20190;-49
2022/09/05 05:53:59;;;;;;;3.13;3.00;;;17.40;99.90;;;;;;5036533;28;20236;-49
2022/09/05 05:57:03;;;;;;;3.80;3.50;;;17.60;99.90;;;;;;5032976;28;20228;-49
2022/09/05 05:59:49;;;;;;;8.37;3.70;;;17.70;99.90;;;;;;5026645;28;20622;-50
2022/09/05 06:03:02;;;;;;;4.07;3.83;;;17.90;99.90;;;;;;5022968;28;20198;-50
2022/09/05 06:06:13;;;;;;;3.63;3.33;;;18.10;99.90;;;;;;5029566;28;20787;-49
2022/09/05 06:09:05;;;;;;;3.43;3.13;;;18.50;99.90;;;;;;5028803;28;20210;-49
2022/09/05 06:12:06;;;;;;;3.00;2.80;;;18.60;99.90;;;;;;5031314;28;20213;-50
2022/09/05 06:14:59;;;;;;;2.50;2.40;;;18.80;99.90;;;;;;5027509;28;20208;-49
2022/09/05 06:18:09;;;;;;;2.63;2.53;;;19.00;99.90;;;;;;5030185;28;20228;-49
2022/09/05 06:21:06;;;;;;;3.37;3.17;;;19.30;99.90;;;;;;5028265;28;20201;-49
2022/09/05 06:24:23;;;;;;;3.13;2.93;;;19.40;99.90;;;;;;5030777;28;20249;-49
2022/09/05 06:27:27;;;;;;;3.63;3.33;;;20.40;99.90;;;;;;4988068;28;20785;-49
2022/09/05 06:30:01;;;;;;;2.70;2.60;;;21.80;99.90;;;;;;4990111;28;20199;-50
2022/09/05 06:32:40;;;;;;;2.93;2.80;;;22.80;99.90;;;;;;5024275;28;20675;-49
2022/09/05 06:35:25;;;;;;;3.43;2.70;;;23.90;99.90;;;;;;5030086;28;20285;-50
2022/09/05 06:38:04;;;;;;;2.97;2.77;;;24.90;99.90;;;;;;5031462;28;20632;-48
2022/09/05 06:40:37;;;;;;;3.07;2.87;;;25.80;99.90;;;;;;5032132;28;20252;-48
2022/09/05 06:43:23;;;;;;;2.43;2.43;;;25.70;99.90;;;;;;5029380;28;20202;-49
2022/09/05 06:46:22;;;;;;;2.63;2.53;;;24.80;99.90;;;;;;5031251;28;20549;-50
2022/09/05 06:48:56;;;;;;;3.17;2.97;;;23.70;99.90;;;;;;5029184;28;20202;-50
2022/09/05 06:51:48;;;;;;;2.60;2.50;;;23.00;99.90;;;;;;5029386;28;20210;-49
2022/09/05 06:54:43;;;;;;;3.43;3.13;;;22.70;99.90;;;;;;5030701;28;20197;-50
2022/09/05 06:57:46;;;;;;;3.50;3.30;;;22.40;99.90;;;;;;5031289;28;20226;-50
2022/09/05 07:00:21;;;;;;;2.87;2.73;;;22.30;99.90;;;;;;5026663;28;20205;-49
2022/09/05 07:03:10;;;;;;;2.67;2.60;;;22.90;99.90;;;;;;5039057;28;20224;-50
2022/09/05 07:05:41;;;;;;;2.83;2.73;;;23.40;99.90;;;;;;5028559;28;20249;-50
2022/09/05 07:08:22;;;;;;;2.10;2.00;;;24.00;99.90;;;;;;5023642;28;20661;-50
2022/09/05 07:10:59;;;;;;;2.20;2.10;;;24.50;99.90;;;;;;5029988;28;20237;-50
2022/09/05 07:13:35;;;;;;;3.27;3.17;;;24.40;99.90;;;;;;5026053;28;20618;-50
2022/09/05 07:16:13;;;;;;;2.23;2.23;;;24.50;99.90;;;;;;5027264;28;20230;-50
2022/09/05 07:18:49;;;;;;;2.37;2.23;;;25.20;99.90;;;;;;5029497;28;20206;-49
2022/09/05 07:21:23;;;;;;;2.70;2.60;;;26.00;99.90;;;;;;5029435;28;20256;-50
2022/09/05 07:23:55;;;;;;;3.43;2.63;;;26.80;99.90;;;;;;5030968;28;20617;-50
2022/09/05 07:26:24;;;;;;;2.70;2.50;;;27.50;99.90;;;;;;5032245;28;20301;-51
2022/09/05 07:28:58;;;;;;;2.47;2.38;;;27.30;99.90;;;;;;5030319;28;20269;-49
2022/09/05 07:31:27;;;;;;;2.45;2.35;;;27.40;99.90;;;;;;5024479;28;20214;-50
2022/09/05 07:34:10;;;;;;;2.40;2.30;;;27.90;99.90;;;;;;5029904;28;20233;-50
2022/09/05 07:36:42;;;;;;;2.38;2.25;;;28.10;99.90;;;;;;5027734;28;20285;-50
2022/09/05 07:39:15;;;;;;;2.58;2.47;;;28.00;99.90;;;;;;5029870;28;20232;-50
2022/09/05 07:41:50;;;;;;;2.25;2.25;;;28.50;99.90;;;;;;5033091;28;20622;-51
2022/09/05 07:44:23;;;;;;;2.33;2.13;;;28.80;99.90;;;;;;5031874;28;20232;-50
2022/09/05 07:46:55;;;;;;;3.00;2.90;;;28.10;99.90;;;;;;5029882;28;20218;-50
2022/09/05 07:49:27;;;;;;;3.10;2.55;;;27.90;99.90;;;;;;5030139;28;20226;-49
2022/09/05 07:51:57;;;;;;;2.67;2.58;;;27.30;99.90;;;;;;5031896;28;20790;-50
2022/09/05 07:54:26;;;;;;;3.80;2.10;;;27.10;99.90;;;;;;5024957;28;20265;-50
2022/09/05 07:56:58;;;;;;;8.73;2.63;;;27.10;99.90;;;;;;5027491;28;20280;-50
2022/09/05 07:59:28;;;;;;;3.35;2.75;;;27.80;99.90;;;;;;5031762;28;20381;-50
2022/09/05 08:01:56;;;;;;;3.78;2.58;;;27.80;99.90;;;;;;5031141;28;20289;-50
2022/09/05 08:04:26;;;;;;;1.85;1.75;;;28.40;99.90;;;;;;5030744;28;20628;-50
2022/09/05 08:06:56;;;;;;;2.35;2.33;;;29.10;99.90;;;;;;5030352;28;20250;-50
2022/09/05 08:09:26;;;;;;;2.22;2.13;;;29.00;99.90;;;;;;5024624;28;20530;-50
2022/09/05 08:11:59;;;;;;;2.55;2.35;;;29.60;99.90;;;;;;5029912;28;20202;-50
2022/09/05 08:14:40;;;;;;;3.65;2.00;;;29.70;99.90;;;;;;5028362;28;20268;-50
2022/09/05 08:17:12;;;;;;;5.13;1.73;;;30.10;99.90;;;;;;5029211;28;20325;-50
2022/09/05 08:19:55;;;;;;;2.08;1.98;;;30.80;99.90;;;;;;5028424;28;20206;-50
2022/09/05 08:22:25;;;;;;;1.73;1.73;;;31.10;99.90;;;;;;5032212;28;20668;-51
2022/09/05 08:25:04;;;;;;;1.90;1.80;;;31.10;99.90;;;;;;5031688;28;20245;-50
2022/09/05 08:27:44;;;;;;;2.15;2.05;;;30.70;99.90;;;;;;5032041;28;20708;-51
2022/09/05 08:30:12;;;;;;;2.22;2.15;;;29.00;99.90;;;;;;5028067;28;20291;-50
2022/09/05 08:32:47;;;;;;;2.20;2.13;;;28.30;99.90;;;;;;5023225;28;20198;-50
2022/09/05 08:35:20;;;;;;;2.67;2.63;;;27.60;99.90;;;;;;5020132;28;20251;-50
2022/09/05 08:37:49;;;;;;;2.28;2.03;;;27.20;99.90;;;;;;5027830;28;20229;-49
2022/09/05 08:40:26;;;;;;;2.13;1.98;;;26.80;99.90;;;;;;5030504;28;20203;-49
2022/09/05 08:43:02;;;;;;;2.72;2.50;;;26.30;99.90;;;;;;5030892;28;20243;-50
2022/09/05 08:45:38;;;;;;;1.92;1.92;;;26.20;99.90;;;;;;5031756;28;20900;-50
2022/09/05 08:48:17;;;;;;;1.67;1.65;;;26.20;99.90;;;;;;5037525;28;20194;-49
2022/09/05 08:51:18;;;;;;;2.03;1.92;;;26.50;99.90;;;;;;5031521;28;20213;-49
2022/09/05 08:54:05;;;;;;;5.63;2.97;;;27.00;99.90;;;;;;5026982;28;20205;-49
2022/09/05 08:56:40;;;;;;;2.30;2.20;;;26.80;99.90;;;;;;5012098;28;20262;-49
2022/09/05 08:59:25;;;;;;;4.05;2.53;;;26.60;99.90;;;;;;5020783;28;20281;-50
2022/09/05 09:02:22;;;;;;;6.68;4.15;;;26.60;99.90;;;;;;5015963;28;20198;-51
2022/09/05 09:05:06;;;;;;;2.83;2.70;;;26.50;99.90;;;;;;5031710;28;20226;-50
2022/09/05 09:07:37;;;;;;;6.00;3.08;;;26.20;99.90;;;;;;5032284;28;20618;-50
2022/09/05 09:10:15;;;;;;;56.90;14.68;;;26.00;99.90;;;;;;5031763;28;20237;-50
2022/09/05 09:13:11;;;;;;;3.30;3.05;;;25.80;99.90;;;;;;5031452;28;20275;-49
2022/09/05 09:15:45;;;;;;;2.65;2.55;;;25.50;99.90;;;;;;5028087;28;20679;-50
2022/09/05 09:18:18;;;;;;;2.67;2.58;;;25.30;99.90;;;;;;5029020;28;20222;-49
2022/09/05 09:20:51;;;;;;;2.55;2.45;;;25.50;99.90;;;;;;5025710;28;20719;-50
2022/09/05 09:23:41;;;;;;;2.95;2.80;;;25.80;99.90;;;;;;5025135;28;20190;-49
2022/09/05 09:26:14;;;;;;;3.25;3.05;;;25.60;99.90;;;;;;5031987;28;20223;-50
2022/09/05 09:28:52;;;;;;;3.60;3.22;;;25.60;99.90;;;;;;5029801;28;20628;-50
2022/09/05 09:31:35;;;;;;;5.15;4.32;;;25.90;99.90;;;;;;5026806;28;20194;-50
2022/09/05 09:34:20;;;;;;;4.03;3.93;;;26.10;99.90;;;;;;5029214;28;20621;-49
2022/09/05 09:37:14;;;;;;;4.45;4.18;;;26.80;99.90;;;;;;5029849;28;20233;-50
2022/09/05 09:40:05;;;;;;;3.90;3.65;;;27.80;99.90;;;;;;5026819;28;20315;-49
2022/09/05 09:42:44;;;;;;;4.47;4.13;;;28.80;99.90;;;;;;5030113;28;20240;-50
2022/09/05 09:45:20;;;;;;;4.22;3.92;;;29.40;99.90;;;;;;5033203;28;20208;-50
2022/09/05 09:48:32;;;;;;;3.63;3.42;;;29.80;99.90;;;;;;5028902;28;20277;-49
2022/09/05 09:51:28;;;;;;;2.97;2.88;;;30.10;99.90;;;;;;4987913;28;20206;-51
2022/09/05 09:54:10;;;;;;;3.50;3.30;;;30.20;99.90;;;;;;5027558;28;20653;-50
2022/09/05 09:57:15;;;;;;;3.25;2.95;;;29.60;99.90;;;;;;5029517;28;20330;-50
2022/09/05 09:59:58;;;;;;;3.45;3.22;;;29.60;99.90;;;;;;5024849;28;20646;-50
2022/09/05 10:02:54;;;;;;;5.88;3.55;;;29.90;99.90;;;;;;5028726;28;20249;-51
2022/09/05 10:05:45;;;;;;;4.18;3.97;;;30.40;99.90;;;;;;5029401;28;20203;-50
2022/09/05 10:08:34;;;;;;;4.72;3.95;;;29.70;99.90;;;;;;5026748;28;20202;-50
2022/09/05 10:11:34;;;;;;;3.85;3.75;;;30.00;99.90;;;;;;5030363;28;20940;-49
2022/09/05 10:14:29;;;;;;;4.50;4.20;;;30.00;99.90;;;;;;5030351;28;20195;-50
2022/09/05 10:17:13;;;;;;;3.30;3.10;;;30.20;99.90;;;;;;5029918;28;20222;-50
2022/09/05 10:20:20;;;;;;;3.63;2.90;;;30.80;99.90;;;;;;5031183;28;20206;-51
2022/09/05 10:23:09;;;;;;;3.35;3.15;;;31.00;99.90;;;;;;5030039;28;20202;-49
2022/09/05 10:26:10;;;;;;;3.53;3.25;;;30.50;99.90;;;;;;5030718;28;20286;-50
2022/09/05 10:28:41;;;;;;;3.28;3.08;;;29.70;99.90;;;;;;5028918;28;20191;-49
2022/09/05 10:31:17;;;;;;;4.43;4.22;;;29.60;99.90;;;;;;5026425;28;20247;-50
2022/09/05 10:33:51;;;;;;;3.25;2.75;;;29.00;99.90;;;;;;5030767;28;20233;-50
2022/09/05 10:36:24;;;;;;;4.28;3.97;;;28.50;99.90;;;;;;5030888;28;20443;-49
2022/09/05 10:39:03;;;;;;;4.00;3.70;;;28.50;99.90;;;;;;5032433;28;20694;-51
2022/09/05 10:41:47;;;;;;;3.40;3.30;;;28.60;99.90;;;;;;5034088;28;20627;-50
2022/09/05 10:44:14;;;;;;;3.15;2.95;;;28.90;99.90;;;;;;5024311;28;20297;-49
2022/09/05 10:46:57;;;;;;;3.38;3.17;;;29.00;99.90;;;;;;5023935;28;20261;-50
2022/09/05 10:49:27;;;;;;;3.88;3.67;;;29.10;99.90;;;;;;5034148;28;20272;-50
2022/09/05 10:52:01;;;;;;;2.92;2.83;;;28.50;99.90;;;;;;5033749;28;20264;-50
2022/09/05 10:54:39;;;;;;;3.78;3.67;;;27.80;99.90;;;;;;5031320;28;20199;-49
2022/09/05 10:57:21;;;;;;;4.03;3.72;;;27.40;99.90;;;;;;5024479;28;20301;-50
2022/09/05 11:00:05;;;;;;;3.60;3.50;;;26.90;99.90;;;;;;5023082;28;20199;-50
2022/09/05 11:02:38;;;;;;;5.85;3.55;;;26.80;99.90;;;;;;5033673;28;20205;-50
2022/09/05 11:05:16;;;;;;;3.40;3.30;;;26.50;99.90;;;;;;5033454;28;20293;-50
2022/09/05 11:07:52;;;;;;;3.25;3.05;;;26.30;99.90;;;;;;5033368;28;20772;-50
2022/09/05 11:10:23;;;;;;;4.05;3.85;;;26.30;99.90;;;;;;5033720;28;20206;-50
2022/09/05 11:13:09;;;;;;;4.10;3.83;;;26.20;99.90;;;;;;5033503;28;20210;-49
2022/09/05 11:15:56;;;;;;;4.23;3.23;;;26.40;99.90;;;;;;5025517;28;20845;-50
2022/09/05 11:18:40;;;;;;;3.70;3.47;;;26.10;99.90;;;;;;5033395;28;20229;-50
2022/09/05 11:21:11;;;;;;;3.70;3.47;;;26.40;99.90;;;;;;5032991;28;20310;-51
2022/09/05 11:23:42;;;;;;;3.50;3.10;;;26.80;99.90;;;;;;5033100;28;20210;-49
2022/09/05 11:26:30;;;;;;;3.22;3.03;;;27.10;99.90;;;;;;5032917;28;20231;-49
2022/09/05 11:29:04;;;;;;;3.97;3.05;;;27.30;99.90;;;;;;5033112;28;20352;-50
2022/09/05 11:31:44;;;;;;;2.75;2.65;;;27.40;99.90;;;;;;5033061;28;20557;-50
2022/09/05 11:34:45;;;;;;;2.83;2.72;;;27.60;99.90;;;;;;5025043;28;20203;-50
2022/09/05 11:37:26;;;;;;;2.90;2.80;;;27.50;99.90;;;;;;5013380;28;20262;-50
2022/09/05 11:40:31;;;;;;;3.55;3.20;;;27.60;99.90;;;;;;5013225;28;20225;-50
2022/09/05 11:43:36;;;;;;;2.85;2.30;;;27.30;99.90;;;;;;5012968;28;20206;-49
2022/09/05 11:46:31;;;;;;;2.67;2.63;;;27.10;99.90;;;;;;5010881;28;20658;-50
2022/09/05 11:49:32;;;;;;;3.28;3.17;;;27.00;99.90;;;;;;5029517;28;20210;-50
2022/09/05 11:52:26;;;;;;;2.85;2.80;;;27.20;99.90;;;;;;5013221;28;20203;-50
2022/09/05 11:55:38;;;;;;;4.57;2.42;;;27.50;99.90;;;;;;5012812;28;20239;-49
2022/09/05 11:58:35;;;;;;;3.08;2.83;;;27.80;99.90;;;;;;5013152;28;20223;-51
2022/09/05 12:01:09;;;;;;;10.25;3.20;;;27.50;99.90;;;;;;5012733;28;20273;-51
2022/09/05 12:03:51;;;;;;;2.72;2.63;;;27.40;99.90;;;;;;5019407;28;20644;-50
2022/09/05 12:06:41;;;;;;;2.55;2.35;;;27.20;99.90;;;;;;5030209;28;21070;-50
2022/09/05 12:09:19;;;;;;;2.42;2.42;;;26.90;99.90;;;;;;5027199;28;20203;-50
2022/09/05 12:12:00;;;;;;;2.50;2.30;;;26.90;99.90;;;;;;5031086;28;20203;-50
2022/09/05 12:14:39;;;;;;;2.75;2.55;;;26.80;99.90;;;;;;5031055;28;20198;-50
2022/09/05 12:17:27;;;;;;;2.30;2.20;;;26.60;99.90;;;;;;5030765;28;20267;-50
2022/09/05 12:20:04;;;;;;;2.47;1.90;;;26.40;99.90;;;;;;5029251;28;20272;-50
2022/09/05 12:22:35;;;;;;;2.25;2.15;;;26.30;99.90;;;;;;5032379;28;20565;-50
2022/09/05 12:25:26;;;;;;;2.50;2.40;;;26.40;99.90;;;;;;5032318;28;20202;-50
2022/09/05 12:27:58;;;;;;;2.15;2.15;;;26.20;99.90;;;;;;5024806;28;20288;-50
2022/09/05 12:30:27;;;;;;;2.03;1.92;;;26.20;99.90;;;;;;5030645;28;20676;-50
2022/09/05 12:32:56;;;;;;;1.92;1.83;;;26.30;99.90;;;;;;5030565;28;20617;-51
2022/09/05 12:35:32;;;;;;;2.05;1.95;;;26.30;99.90;;;;;;5029498;28;20676;-50
2022/09/05 12:38:09;;;;;;;2.17;2.00;;;26.30;99.90;;;;;;5030344;28;20301;-49
2022/09/05 12:40:41;;;;;;;2.50;2.40;;;26.30;99.90;;;;;;5033932;28;20225;-49
2022/09/05 12:43:11;;;;;;;1.92;1.88;;;26.40;99.90;;;;;;5030120;28;20236;-49
2022/09/05 12:45:43;;;;;;;1.92;1.83;;;26.20;99.90;;;;;;5027040;28;20844;-48
2022/09/05 12:48:16;;;;;;;3.78;1.90;;;26.30;99.90;;;;;;5026694;28;20643;-49
2022/09/05 12:50:54;;;;;;;2.85;2.17;;;26.20;99.90;;;;;;5028475;28;20238;-49
2022/09/05 12:53:24;;;;;;;1.77;1.73;;;26.20;99.90;;;;;;5027609;28;20198;-49
2022/09/05 12:55:57;;;;;;;1.90;1.80;;;26.10;99.90;;;;;;5029413;28;20277;-49
2022/09/05 12:58:28;;;;;;;3.22;1.95;;;26.10;99.90;;;;;;5033972;28;20742;-49
2022/09/05 13:01:21;;;;;;;3.20;1.73;;;26.00;99.90;;;;;;5029589;28;20195;-48
2022/09/05 13:03:51;;;;;;;2.33;2.00;;;25.90;99.90;;;;;;5025113;28;20218;-49
2022/09/05 13:06:24;;;;;;;1.73;1.73;;;25.90;99.90;;;;;;5030075;28;20233;-49
2022/09/05 13:08:56;;;;;;;2.15;2.00;;;25.90;99.90;;;;;;5026445;28;20558;-49
2022/09/05 13:11:24;;;;;;;2.35;2.13;;;26.00;99.90;;;;;;5029689;28;20289;-49
2022/09/05 13:13:55;;;;;;;2.75;2.65;;;26.20;99.90;;;;;;5029471;28;20259;-48
2022/09/05 13:16:25;;;;;;;2.40;2.30;;;26.20;99.90;;;;;;5029734;28;20785;-49
2022/09/05 13:19:01;;;;;;;2.63;2.47;;;26.20;99.90;;;;;;5029935;28;20272;-48
2022/09/05 13:21:31;;;;;;;3.75;3.28;;;26.30;99.90;;;;;;5030206;28;20194;-49
2022/09/05 13:24:05;;;;;;;3.13;2.15;;;26.50;99.90;;;;;;5029867;28;20233;-49
2022/09/05 13:26:36;;;;;;;7.43;2.90;;;26.60;99.90;;;;;;5029956;28;20245;-48
2022/09/05 13:29:11;;;;;;;10.00;2.42;;;26.90;99.90;;;;;;5026477;28;20201;-50
2022/09/05 13:32:14;;;;;;;2.42;2.33;;;26.90;99.90;;;;;;5030456;28;20662;-50
2022/09/05 13:34:45;;;;;;;2.63;2.38;;;26.80;99.90;;;;;;5027880;28;20202;-49
2022/09/05 13:37:18;;;;;;;2.10;2.10;;;26.80;99.90;;;;;;5030546;28;20218;-49
2022/09/05 13:39:51;;;;;;;3.17;2.72;;;26.60;99.90;;;;;;5030917;28;20317;-49
2022/09/05 13:42:21;;;;;;;1.80;1.80;;;26.50;99.90;;;;;;5030613;28;20195;-50
2022/09/05 13:44:52;;;;;;;3.45;1.83;;;26.30;99.90;;;;;;5030468;28;20684;-48
2022/09/05 13:47:49;;;;;;;3.13;2.55;;;26.20;99.90;;;;;;5026985;28;20222;-49
2022/09/05 13:50:24;;;;;;;104.65;12.30;;;26.00;99.90;;;;;;5027491;28;20202;-49
2022/09/05 13:52:57;;;;;;;2.88;2.63;;;26.00;99.90;;;;;;5029923;28;20215;-49
2022/09/05 13:55:36;;;;;;;2.97;2.67;;;26.00;99.90;;;;;;5030584;28;20360;-48